createdAt,value
2023-04-19T00:00:45.923Z,22.75
2023-04-19T00:01:45.948Z,22.75
2023-04-19T00:02:46.012Z,22.75
2023-04-19T00:03:46.001Z,22.75
2023-04-19T00:04:45.966Z,22.76
2023-04-19T00:05:45.869Z,22.75
2023-04-19T00:06:45.868Z,22.75
2023-04-19T00:07:45.861Z,22.75
2023-04-19T00:08:45.876Z,22.75
2023-04-19T00:09:45.851Z,22.75
2023-04-19T00:10:45.842Z,22.75
2023-04-19T00:11:45.811Z,22.75
2023-04-19T00:12:45.850Z,22.75
2023-04-19T00:13:45.852Z,22.75
2023-04-19T00:14:45.817Z,22.75
2023-04-19T00:15:45.886Z,22.75
2023-04-19T00:16:45.863Z,22.74
2023-04-19T00:17:45.881Z,22.74
2023-04-19T00:18:45.818Z,22.74
2023-04-19T00:19:45.805Z,22.75
2023-04-19T00:20:45.815Z,22.75
2023-04-19T00:21:45.757Z,22.74
2023-04-19T00:22:45.768Z,22.75
2023-04-19T00:23:45.776Z,22.74
2023-04-19T00:24:45.781Z,22.74
2023-04-19T00:25:45.737Z,22.74
2023-04-19T00:26:45.750Z,22.74
2023-04-19T00:27:45.716Z,22.73
2023-04-19T00:28:45.753Z,22.74
2023-04-19T00:29:45.709Z,22.73
2023-04-19T00:30:45.755Z,22.73
2023-04-19T00:31:45.747Z,22.74
2023-04-19T00:32:45.756Z,22.73
2023-04-19T00:33:45.683Z,22.73
2023-04-19T00:34:45.698Z,22.73
2023-04-19T00:35:45.701Z,22.73
2023-04-19T00:36:45.660Z,22.73
2023-04-19T00:37:45.671Z,22.73
2023-04-19T00:38:45.672Z,22.73
2023-04-19T00:39:45.686Z,22.73
2023-04-19T00:40:45.639Z,22.73
2023-04-19T00:41:45.599Z,22.73
2023-04-19T00:42:45.621Z,22.73
2023-04-19T00:43:45.601Z,22.74
2023-04-19T00:44:45.703Z,22.74
2023-04-19T00:45:45.623Z,22.73
2023-04-19T00:46:45.639Z,22.74
2023-04-19T00:47:45.603Z,22.72
2023-04-19T00:48:45.588Z,22.73
2023-04-19T00:49:45.662Z,22.74
2023-04-19T00:50:45.610Z,22.73
2023-04-19T00:51:45.710Z,22.73
2023-04-19T00:52:45.672Z,22.73
2023-04-19T00:53:45.684Z,22.73
2023-04-19T00:54:45.705Z,22.73
2023-04-19T00:55:45.737Z,22.72
2023-04-19T00:56:45.747Z,22.72
2023-04-19T00:57:45.767Z,22.72
2023-04-19T00:58:45.764Z,22.72
2023-04-19T00:59:45.815Z,22.73
2023-04-19T01:00:45.817Z,22.73
2023-04-19T01:01:45.906Z,22.72
2023-04-19T01:02:45.896Z,22.72
2023-04-19T01:03:46.060Z,22.73
2023-04-19T01:04:45.903Z,22.72
2023-04-19T01:05:45.959Z,22.73
2023-04-19T01:06:45.948Z,22.72
2023-04-19T01:07:45.963Z,22.72
2023-04-19T01:08:45.979Z,22.73
2023-04-19T01:09:46.005Z,22.73
2023-04-19T01:10:46.051Z,22.73
2023-04-19T01:11:46.051Z,22.73
2023-04-19T01:12:46.072Z,22.74
2023-04-19T01:13:46.107Z,22.73
2023-04-19T01:14:46.141Z,22.74
2023-04-19T01:15:46.192Z,22.73
2023-04-19T01:16:46.166Z,22.73
2023-04-19T01:17:46.236Z,22.74
2023-04-19T01:18:46.196Z,22.72
2023-04-19T01:19:46.230Z,22.73
2023-04-19T01:20:46.265Z,22.73
2023-04-19T01:21:46.262Z,22.73
2023-04-19T01:22:46.342Z,22.73
2023-04-19T01:23:46.306Z,22.73
2023-04-19T01:24:46.303Z,22.74
2023-04-19T01:25:46.364Z,22.73
2023-04-19T01:26:46.389Z,22.73
2023-04-19T01:27:46.416Z,22.72
2023-04-19T01:28:46.416Z,22.73
2023-04-19T01:29:46.449Z,22.73
2023-04-19T01:30:46.503Z,22.73
2023-04-19T01:31:46.536Z,22.73
2023-04-19T01:32:46.566Z,22.73
2023-04-19T01:33:46.551Z,22.73
2023-04-19T01:34:46.563Z,22.72
2023-04-19T01:35:46.557Z,22.72
2023-04-19T01:36:46.590Z,22.73
2023-04-19T01:37:46.606Z,22.72
2023-04-19T01:38:46.659Z,22.72
2023-04-19T01:39:46.654Z,22.73
2023-04-19T01:40:46.714Z,22.72
2023-04-19T01:41:46.706Z,22.72
2023-04-19T01:42:46.716Z,22.72
2023-04-19T01:43:46.789Z,22.72
2023-04-19T01:44:46.785Z,22.72
2023-04-19T01:45:46.797Z,22.72
2023-04-19T01:46:46.847Z,22.72
2023-04-19T01:47:46.882Z,22.72
2023-04-19T01:48:46.872Z,22.72
2023-04-19T01:49:46.936Z,22.73
2023-04-19T01:50:46.893Z,22.72
2023-04-19T01:51:46.941Z,22.72
2023-04-19T01:52:46.945Z,22.72
2023-04-19T01:53:46.949Z,22.73
2023-04-19T01:54:47.011Z,22.72
2023-04-19T01:55:47.014Z,22.72
2023-04-19T01:56:47.050Z,22.72
2023-04-19T01:57:47.096Z,22.72
2023-04-19T01:58:47.106Z,22.72
2023-04-19T01:59:47.111Z,22.72
2023-04-19T02:00:47.229Z,22.72
2023-04-19T02:01:47.225Z,22.71
2023-04-19T02:02:47.312Z,22.72
2023-04-19T02:03:47.331Z,22.72
2023-04-19T02:04:47.245Z,22.72
2023-04-19T02:05:47.244Z,22.72
2023-04-19T02:06:47.266Z,22.72
2023-04-19T02:07:47.275Z,22.72
2023-04-19T02:08:47.363Z,22.71
2023-04-19T02:09:47.354Z,22.72
2023-04-19T02:10:47.376Z,22.72
2023-04-19T02:11:47.418Z,22.72
2023-04-19T02:12:47.424Z,22.71
2023-04-19T02:13:47.442Z,22.71
2023-04-19T02:14:47.508Z,22.71
2023-04-19T02:15:47.455Z,22.72
2023-04-19T02:16:47.518Z,22.72
2023-04-19T02:17:47.601Z,22.71
2023-04-19T02:18:47.543Z,22.72
2023-04-19T02:19:47.578Z,22.71
2023-04-19T02:20:47.595Z,22.72
2023-04-19T02:21:47.596Z,22.71
2023-04-19T02:22:47.670Z,22.71
2023-04-19T02:23:47.683Z,22.71
2023-04-19T02:24:47.689Z,22.71
2023-04-19T02:25:47.688Z,22.71
2023-04-19T02:26:47.697Z,22.71
2023-04-19T02:27:47.749Z,22.71
2023-04-19T02:28:47.759Z,22.70
2023-04-19T02:29:47.827Z,22.69
2023-04-19T02:30:47.819Z,22.69
2023-04-19T02:31:47.854Z,22.70
2023-04-19T02:32:47.858Z,22.70
2023-04-19T02:33:47.907Z,22.70
2023-04-19T02:34:47.896Z,22.70
2023-04-19T02:35:47.910Z,22.70
2023-04-19T02:36:47.962Z,22.71
2023-04-19T02:37:47.986Z,22.71
2023-04-19T02:38:48.031Z,22.71
2023-04-19T02:39:48.036Z,22.71
2023-04-19T02:40:48.053Z,22.71
2023-04-19T02:41:48.115Z,22.70
2023-04-19T02:42:48.121Z,22.70
2023-04-19T02:43:48.122Z,22.69
2023-04-19T02:44:48.175Z,22.70
2023-04-19T02:45:48.223Z,22.70
2023-04-19T02:46:48.175Z,22.70
2023-04-19T02:47:48.271Z,22.70
2023-04-19T02:48:48.260Z,22.70
2023-04-19T02:49:48.266Z,22.70
2023-04-19T02:50:48.269Z,22.70
2023-04-19T02:51:48.278Z,22.70
2023-04-19T02:52:48.279Z,22.70
2023-04-19T02:53:48.309Z,22.70
2023-04-19T02:54:48.326Z,22.70
2023-04-19T02:55:48.336Z,22.69
2023-04-19T02:56:48.341Z,22.70
2023-04-19T02:57:48.390Z,22.70
2023-04-19T02:58:48.428Z,22.69
2023-04-19T02:59:48.447Z,22.69
2023-04-19T03:00:48.589Z,22.69
2023-04-19T03:01:48.715Z,22.69
2023-04-19T03:02:48.675Z,22.69
2023-04-19T03:03:48.681Z,22.70
2023-04-19T03:04:48.620Z,22.69
2023-04-19T03:05:48.586Z,22.69
2023-04-19T03:06:48.633Z,22.70
2023-04-19T03:07:48.664Z,22.69
2023-04-19T03:08:48.669Z,22.69
2023-04-19T03:09:48.718Z,22.69
2023-04-19T03:10:48.721Z,22.69
2023-04-19T03:11:48.770Z,22.69
2023-04-19T03:12:48.762Z,22.68
2023-04-19T03:13:48.808Z,22.69
2023-04-19T03:14:48.802Z,22.70
2023-04-19T03:15:48.882Z,22.69
2023-04-19T03:16:48.895Z,22.69
2023-04-19T03:17:48.976Z,22.69
2023-04-19T03:18:49.653Z,22.69
2023-04-19T03:19:48.987Z,22.69
2023-04-19T03:20:49.032Z,22.69
2023-04-19T03:21:49.021Z,22.68
2023-04-19T03:22:49.088Z,22.69
2023-04-19T03:23:49.099Z,22.69
2023-04-19T03:24:49.127Z,22.69
2023-04-19T03:25:49.136Z,22.68
2023-04-19T03:26:49.171Z,22.68
2023-04-19T03:27:49.192Z,22.68
2023-04-19T03:28:50.109Z,22.68
2023-04-19T03:29:49.240Z,22.67
2023-04-19T03:30:49.244Z,22.68
2023-04-19T03:31:49.479Z,22.68
2023-04-19T03:32:49.384Z,22.69
2023-04-19T03:33:49.349Z,22.68
2023-04-19T03:34:49.398Z,22.68
2023-04-19T03:35:49.409Z,22.69
2023-04-19T03:36:49.401Z,22.68
2023-04-19T03:37:49.461Z,22.68
2023-04-19T03:38:49.488Z,22.68
2023-04-19T03:39:49.528Z,22.68
2023-04-19T03:40:49.561Z,22.68
2023-04-19T03:41:49.532Z,22.68
2023-04-19T03:42:49.610Z,22.68
2023-04-19T03:43:49.734Z,22.67
2023-04-19T03:44:49.618Z,22.67
2023-04-19T03:45:49.682Z,22.68
2023-04-19T03:46:49.624Z,22.67
2023-04-19T03:47:49.647Z,22.68
2023-04-19T03:48:50.671Z,22.68
2023-04-19T03:49:49.731Z,22.67
2023-04-19T03:50:49.750Z,22.68
2023-04-19T03:51:49.804Z,22.68
2023-04-19T03:52:49.815Z,22.68
2023-04-19T03:53:49.852Z,22.68
2023-04-19T03:54:49.873Z,22.68
2023-04-19T03:55:49.893Z,22.67
2023-04-19T03:56:49.955Z,22.68
2023-04-19T03:57:49.960Z,22.67
2023-04-19T03:58:50.000Z,22.67
2023-04-19T03:59:50.025Z,22.67
2023-04-19T04:00:50.040Z,22.68
2023-04-19T04:01:50.187Z,22.67
2023-04-19T04:02:50.216Z,22.67
2023-04-19T04:03:50.334Z,22.67
2023-04-19T04:04:50.313Z,22.67
2023-04-19T04:05:50.199Z,22.67
2023-04-19T04:06:50.234Z,22.68
2023-04-19T04:07:50.280Z,22.67
2023-04-19T04:08:50.278Z,22.68
2023-04-19T04:09:50.329Z,22.67
2023-04-19T04:10:50.304Z,22.68
2023-04-19T04:11:50.362Z,22.67
2023-04-19T04:12:50.373Z,22.67
2023-04-19T04:13:50.422Z,22.67
2023-04-19T04:14:50.417Z,22.67
2023-04-19T04:15:50.561Z,22.67
2023-04-19T04:16:51.118Z,22.67
2023-04-19T04:17:50.560Z,22.67
2023-04-19T04:18:50.561Z,22.67
2023-04-19T04:19:50.563Z,22.66
2023-04-19T04:20:50.554Z,22.67
2023-04-19T04:21:50.578Z,22.66
2023-04-19T04:22:50.613Z,22.67
2023-04-19T04:23:50.686Z,22.67
2023-04-19T04:24:50.699Z,22.67
2023-04-19T04:25:50.703Z,22.66
2023-04-19T04:26:50.700Z,22.66
2023-04-19T04:27:50.772Z,22.67
2023-04-19T04:28:50.775Z,22.67
2023-04-19T04:29:50.820Z,22.67
2023-04-19T04:30:50.849Z,22.67
2023-04-19T04:31:50.897Z,22.67
2023-04-19T04:32:50.885Z,22.66
2023-04-19T04:33:50.928Z,22.67
2023-04-19T04:34:50.924Z,22.66
2023-04-19T04:35:50.959Z,22.67
2023-04-19T04:36:50.999Z,22.67
2023-04-19T04:37:51.062Z,22.67
2023-04-19T04:38:51.055Z,22.67
2023-04-19T04:39:51.119Z,22.67
2023-04-19T04:40:51.095Z,22.66
2023-04-19T04:41:51.137Z,22.67
2023-04-19T04:42:51.130Z,22.66
2023-04-19T04:44:04.651Z,22.67
2023-04-19T04:44:52.183Z,22.66
2023-04-19T04:45:51.196Z,22.66
2023-04-19T04:46:51.166Z,22.66
2023-04-19T04:47:51.367Z,22.66
2023-04-19T04:48:51.149Z,22.66
2023-04-19T04:49:51.136Z,22.66
2023-04-19T04:50:51.182Z,22.67
2023-04-19T04:51:51.183Z,22.67
2023-04-19T04:52:51.105Z,22.67
2023-04-19T04:53:51.108Z,22.67
2023-04-19T04:54:51.116Z,22.67
2023-04-19T04:55:51.100Z,22.66
2023-04-19T04:56:51.157Z,22.64
2023-04-19T04:57:51.092Z,22.60
2023-04-19T04:58:51.207Z,22.56
2023-04-19T04:59:51.116Z,22.53
2023-04-19T05:00:51.136Z,22.49
2023-04-19T05:01:51.225Z,22.46
2023-04-19T05:02:51.340Z,22.43
2023-04-19T05:03:51.295Z,22.41
2023-04-19T05:04:51.339Z,22.39
2023-04-19T05:05:51.303Z,22.37
2023-04-19T05:06:51.303Z,22.34
2023-04-19T05:07:51.305Z,22.32
2023-04-19T05:08:51.315Z,22.30
2023-04-19T05:09:51.348Z,22.28
2023-04-19T05:10:51.321Z,22.28
2023-04-19T05:11:51.397Z,22.26
2023-04-19T05:12:51.394Z,22.26
2023-04-19T05:13:51.337Z,22.24
2023-04-19T05:14:51.421Z,22.23
2023-04-19T05:15:51.375Z,22.21
2023-04-19T05:16:51.495Z,22.21
2023-04-19T05:17:51.462Z,22.20
2023-04-19T05:18:51.492Z,22.20
2023-04-19T05:19:51.494Z,22.20
2023-04-19T05:20:51.490Z,22.19
2023-04-19T05:21:51.509Z,22.19
2023-04-19T05:22:51.505Z,22.19
2023-04-19T05:23:51.550Z,22.18
2023-04-19T05:24:51.582Z,22.18
2023-04-19T05:25:51.525Z,22.17
2023-04-19T05:26:51.671Z,22.16
2023-04-19T05:27:51.576Z,22.16
2023-04-19T05:28:51.577Z,22.16
2023-04-19T05:29:51.638Z,22.15
2023-04-19T05:30:51.621Z,22.15
2023-04-19T05:31:51.773Z,22.15
2023-04-19T05:32:51.775Z,22.15
2023-04-19T05:33:51.682Z,22.14
2023-04-19T05:34:51.689Z,22.13
2023-04-19T05:35:52.693Z,22.13
2023-04-19T05:36:51.904Z,22.12
2023-04-19T05:37:51.677Z,22.12
2023-04-19T05:38:51.716Z,22.13
2023-04-19T05:39:51.652Z,22.13
2023-04-19T05:40:51.674Z,22.14
2023-04-19T05:41:51.633Z,22.16
2023-04-19T05:42:51.658Z,22.17
2023-04-19T05:43:51.664Z,22.13
2023-04-19T05:44:51.622Z,22.08
2023-04-19T05:45:51.763Z,21.96
2023-04-19T05:46:51.617Z,21.88
2023-04-19T05:47:51.662Z,21.85
2023-04-19T05:48:51.582Z,21.83
2023-04-19T05:49:51.592Z,21.82
2023-04-19T05:50:51.567Z,21.82
2023-04-19T05:51:51.565Z,21.83
2023-04-19T05:52:51.573Z,21.84
2023-04-19T05:53:51.637Z,21.87
2023-04-19T05:54:51.648Z,21.88
2023-04-19T05:55:51.652Z,21.89
2023-04-19T05:56:51.710Z,21.91
2023-04-19T05:57:51.745Z,21.93
2023-04-19T05:58:51.806Z,21.94
2023-04-19T05:59:51.864Z,21.97
2023-04-19T06:00:51.829Z,22.00
2023-04-19T06:01:51.853Z,22.02
2023-04-19T06:02:51.906Z,22.04
2023-04-19T06:03:52.140Z,22.06
2023-04-19T06:04:51.852Z,22.09
2023-04-19T06:05:51.908Z,22.11
2023-04-19T06:06:51.849Z,22.13
2023-04-19T06:07:55.692Z,22.16
2023-04-19T06:08:54.876Z,22.18
2023-04-19T06:09:51.875Z,22.19
2023-04-19T06:10:55.639Z,22.21
2023-04-19T06:11:52.828Z,22.23
2023-04-19T06:12:51.822Z,22.25
2023-04-19T06:13:51.846Z,22.27
2023-04-19T06:14:51.887Z,22.28
2023-04-19T06:15:51.973Z,22.30
2023-04-19T06:16:51.963Z,22.32
2023-04-19T06:17:52.053Z,22.33
2023-04-19T06:18:52.065Z,22.34
2023-04-19T06:19:52.112Z,22.35
2023-04-19T06:20:52.208Z,22.35
2023-04-19T06:21:52.237Z,22.37
2023-04-19T06:22:52.233Z,22.38
2023-04-19T06:23:52.433Z,22.38
2023-04-19T06:24:52.363Z,22.39
2023-04-19T06:25:52.411Z,22.39
2023-04-19T06:26:52.455Z,22.40
2023-04-19T06:27:52.537Z,22.40
2023-04-19T06:28:52.553Z,22.41
2023-04-19T06:29:52.671Z,22.42
2023-04-19T06:30:52.695Z,22.42
2023-04-19T06:31:52.914Z,22.43
2023-04-19T06:32:52.810Z,22.43
2023-04-19T06:33:52.795Z,22.43
2023-04-19T06:34:52.892Z,22.44
2023-04-19T06:35:52.955Z,22.44
2023-04-19T06:36:52.967Z,22.44
2023-04-19T06:37:53.024Z,22.44
2023-04-19T06:38:53.032Z,22.45
2023-04-19T06:39:53.129Z,22.45
2023-04-19T06:40:53.097Z,22.45
2023-04-19T06:41:53.221Z,22.45
2023-04-19T06:42:53.226Z,22.46
2023-04-19T06:43:53.305Z,22.46
2023-04-19T06:44:53.344Z,22.46
2023-04-19T06:45:53.411Z,22.45
2023-04-19T06:46:53.383Z,22.46
2023-04-19T06:47:53.479Z,22.46
2023-04-19T06:48:53.514Z,22.47
2023-04-19T06:49:53.528Z,22.47
2023-04-19T06:50:53.579Z,22.47
2023-04-19T06:51:53.622Z,22.47
2023-04-19T06:52:53.658Z,22.47
2023-04-19T06:53:53.735Z,22.47
2023-04-19T06:54:53.755Z,22.46
2023-04-19T06:55:54.066Z,22.45
2023-04-19T06:56:53.859Z,22.47
2023-04-19T06:57:53.905Z,22.50
2023-04-19T06:58:53.978Z,22.53
2023-04-19T06:59:53.960Z,22.56
2023-04-19T07:00:53.987Z,22.58
2023-04-19T07:01:54.190Z,22.61
2023-04-19T07:02:54.426Z,22.65
2023-04-19T07:03:56.597Z,22.68
2023-04-19T07:04:54.131Z,22.72
2023-04-19T07:05:54.072Z,22.75
2023-04-19T07:06:54.056Z,22.77
2023-04-19T07:07:54.046Z,22.81
2023-04-19T07:08:54.279Z,22.84
2023-04-19T07:09:54.075Z,22.88
2023-04-19T07:10:54.005Z,22.91
2023-04-19T07:11:54.029Z,22.93
2023-04-19T07:12:53.984Z,22.95
2023-04-19T07:13:54.015Z,22.96
2023-04-19T07:14:53.986Z,23.00
2023-04-19T07:15:54.023Z,23.02
2023-04-19T07:16:54.016Z,23.05
2023-04-19T07:17:54.035Z,23.05
2023-04-19T07:18:53.958Z,23.08
2023-04-19T07:19:54.225Z,23.09
2023-04-19T07:20:53.953Z,23.11
2023-04-19T07:21:53.934Z,23.13
2023-04-19T07:22:53.945Z,23.13
2023-04-19T07:23:53.917Z,23.15
2023-04-19T07:24:54.251Z,23.16
2023-04-19T07:25:53.911Z,23.17
2023-04-19T07:26:53.897Z,23.19
2023-04-19T07:27:53.979Z,23.20
2023-04-19T07:28:53.901Z,23.21
2023-04-19T07:29:53.883Z,23.22
2023-04-19T07:30:54.261Z,23.24
2023-04-19T07:31:53.906Z,23.24
2023-04-19T07:32:53.893Z,23.25
2023-04-19T07:33:53.851Z,23.26
2023-04-19T07:34:53.833Z,23.26
2023-04-19T07:35:54.229Z,23.28
2023-04-19T07:36:53.830Z,23.28
2023-04-19T07:37:53.845Z,23.28
2023-04-19T07:38:53.848Z,23.28
2023-04-19T07:39:53.811Z,23.30
2023-04-19T07:40:54.230Z,23.30
2023-04-19T07:41:53.754Z,23.32
2023-04-19T07:42:53.758Z,23.33
2023-04-19T07:43:53.770Z,23.34
2023-04-19T07:44:53.723Z,23.36
2023-04-19T07:45:54.260Z,23.35
2023-04-19T07:46:53.945Z,23.28
2023-04-19T07:47:53.829Z,23.08
2023-04-19T07:48:53.730Z,22.85
2023-04-19T07:49:53.730Z,22.63
2023-04-19T07:50:53.773Z,22.47
2023-04-19T07:51:53.735Z,22.30
2023-04-19T07:52:53.729Z,22.14
2023-04-19T07:53:53.767Z,22.04
2023-04-19T07:54:53.801Z,21.97
2023-04-19T07:55:53.877Z,21.95
2023-04-19T07:56:53.916Z,21.95
2023-04-19T07:57:53.936Z,21.97
2023-04-19T07:59:06.797Z,22.01
2023-04-19T07:59:55.153Z,22.07
2023-04-19T08:00:53.973Z,22.13
2023-04-19T08:01:54.092Z,22.20
2023-04-19T08:02:54.072Z,22.28
2023-04-19T08:03:54.134Z,22.34
2023-04-19T08:04:54.008Z,22.43
2023-04-19T08:05:53.994Z,22.48
2023-04-19T08:06:53.899Z,22.55
2023-04-19T08:07:53.874Z,22.63
2023-04-19T08:08:53.900Z,22.69
2023-04-19T08:09:53.913Z,22.74
2023-04-19T08:10:53.904Z,22.80
2023-04-19T08:11:53.908Z,22.85
2023-04-19T08:15:03.888Z,22.98
2023-04-19T08:17:53.833Z,23.10
2023-04-19T08:18:53.831Z,23.14
2023-04-19T08:19:53.864Z,23.18
2023-04-19T08:20:53.871Z,23.21
2023-04-19T08:21:53.787Z,23.24
2023-04-19T08:22:53.758Z,23.27
2023-04-19T08:24:53.787Z,23.31
2023-04-19T08:25:53.820Z,23.33
2023-04-19T08:26:53.949Z,23.36
2023-04-19T08:27:53.772Z,23.38
2023-04-19T08:28:53.751Z,23.40
2023-04-19T08:29:53.714Z,23.41
2023-04-19T08:30:53.732Z,23.43
2023-04-19T08:31:53.872Z,23.44
2023-04-19T08:32:56.264Z,23.46
2023-04-19T08:33:53.722Z,23.46
2023-04-19T08:34:53.727Z,23.48
2023-04-19T08:35:53.744Z,23.50
2023-04-19T08:37:03.307Z,23.52
2023-04-19T08:37:54.687Z,23.54
2023-04-19T08:39:04.261Z,23.54
2023-04-19T08:39:54.672Z,23.55
2023-04-19T08:40:53.718Z,23.56
2023-04-19T08:42:04.899Z,23.55
2023-04-19T08:42:54.670Z,23.54
2023-04-19T08:43:53.675Z,23.52
2023-04-19T08:45:13.704Z,23.49
2023-04-19T08:45:54.679Z,23.50
2023-04-19T08:46:53.760Z,23.50
2023-04-19T08:48:00.743Z,23.50
2023-04-19T08:48:55.362Z,23.52
2023-04-19T08:50:06.754Z,23.53
2023-04-19T08:51:04.366Z,23.54
2023-04-19T08:51:54.588Z,23.54
2023-04-19T08:52:58.841Z,23.51
2023-04-19T08:53:54.602Z,23.44
2023-04-19T08:54:53.599Z,23.32
2023-04-19T08:56:53.606Z,23.16
2023-04-19T08:57:53.585Z,23.16
2023-04-19T08:59:04.463Z,23.18
2023-04-19T08:59:54.560Z,23.18
2023-04-19T09:00:53.749Z,23.21
2023-04-19T09:01:53.551Z,23.25
2023-04-19T09:02:53.694Z,23.28
2023-04-19T09:04:04.978Z,23.32
2023-04-19T09:04:54.886Z,23.36
2023-04-19T09:05:53.751Z,23.40
2023-04-19T09:06:53.478Z,23.42
2023-04-19T09:07:53.477Z,23.43
2023-04-19T09:08:53.510Z,23.44
2023-04-19T09:10:02.448Z,23.46
2023-04-19T09:10:54.492Z,23.47
2023-04-19T09:11:53.478Z,23.49
2023-04-19T09:12:53.469Z,23.51
2023-04-19T09:13:53.486Z,23.52
2023-04-19T09:15:01.671Z,23.52
2023-04-19T09:15:54.490Z,23.51
2023-04-19T09:16:53.434Z,23.52
2023-04-19T09:17:53.467Z,23.54
2023-04-19T09:19:02.566Z,23.56
2023-04-19T09:19:54.398Z,23.56
2023-04-19T09:20:53.427Z,23.57
2023-04-19T09:21:53.441Z,23.59
2023-04-19T09:22:53.404Z,23.60
2023-04-19T09:23:53.386Z,23.62
2023-04-19T09:25:30.029Z,23.62
2023-04-19T09:26:53.372Z,23.63
2023-04-19T09:27:53.377Z,23.65
2023-04-19T09:28:53.349Z,23.68
2023-04-19T09:29:53.362Z,23.69
2023-04-19T09:31:02.220Z,23.70
2023-04-19T09:31:54.409Z,23.69
2023-04-19T09:32:53.491Z,23.71
2023-04-19T09:33:53.302Z,23.71
2023-04-19T09:34:53.310Z,23.71
2023-04-19T09:35:53.301Z,23.73
2023-04-19T09:37:04.388Z,23.75
2023-04-19T09:38:04.811Z,23.76
2023-04-19T09:38:54.254Z,23.77
2023-04-19T09:39:53.288Z,23.78
2023-04-19T09:40:53.292Z,23.79
2023-04-19T09:41:53.267Z,23.80
2023-04-19T09:43:06.971Z,23.81
2023-04-19T09:44:08.876Z,23.81
2023-04-19T09:45:25.420Z,23.82
2023-04-19T09:45:54.231Z,23.82
2023-04-19T09:46:53.817Z,23.82
2023-04-19T09:47:53.235Z,23.84
2023-04-19T09:48:53.203Z,23.85
2023-04-19T09:49:53.420Z,23.86
2023-04-19T09:50:58.611Z,23.89
2023-04-19T09:51:54.235Z,23.92
2023-04-19T09:52:53.204Z,23.93
2023-04-19T09:53:53.207Z,23.95
2023-04-19T09:54:53.165Z,23.95
2023-04-19T09:56:01.386Z,23.95
2023-04-19T09:56:56.130Z,23.95
2023-04-19T09:57:53.143Z,23.96
2023-04-19T09:58:58.817Z,23.95
2023-04-19T09:59:54.149Z,23.95
2023-04-19T10:00:59.824Z,23.95
2023-04-19T10:01:54.201Z,23.95
2023-04-19T10:02:53.282Z,23.95
2023-04-19T10:03:53.457Z,23.94
2023-04-19T10:05:53.177Z,23.91
2023-04-19T10:07:19.444Z,23.91
2023-04-19T10:07:56.693Z,23.89
2023-04-19T10:08:54.100Z,23.88
2023-04-19T10:09:55.083Z,23.87
2023-04-19T10:10:54.060Z,23.84
2023-04-19T10:11:56.592Z,23.84
2023-04-19T10:13:53.147Z,23.83
2023-04-19T10:14:53.032Z,23.82
2023-04-19T10:15:57.270Z,23.81
2023-04-19T10:16:54.340Z,23.79
2023-04-19T10:17:53.096Z,23.79
2023-04-19T10:18:53.027Z,23.77
2023-04-19T10:19:52.978Z,23.77
2023-04-19T10:20:52.994Z,23.75
2023-04-19T10:21:53.264Z,23.74
2023-04-19T10:22:52.980Z,23.73
2023-04-19T10:23:52.992Z,23.73
2023-04-19T10:24:52.951Z,23.72
2023-04-19T10:25:52.947Z,23.70
2023-04-19T10:26:53.315Z,23.70
2023-04-19T10:27:52.928Z,23.69
2023-04-19T10:28:52.918Z,23.67
2023-04-19T10:29:52.926Z,23.66
2023-04-19T10:30:52.950Z,23.65
2023-04-19T10:31:53.348Z,23.64
2023-04-19T10:32:53.025Z,23.63
2023-04-19T10:33:52.921Z,23.63
2023-04-19T10:34:52.951Z,23.62
2023-04-19T10:35:52.984Z,23.61
2023-04-19T10:36:53.299Z,23.60
2023-04-19T10:37:53.040Z,23.60
2023-04-19T10:38:53.049Z,23.59
2023-04-19T10:39:53.186Z,23.58
2023-04-19T10:40:53.128Z,23.57
2023-04-19T10:41:53.315Z,23.56
2023-04-19T10:42:53.184Z,23.56
2023-04-19T10:43:53.232Z,23.55
2023-04-19T10:44:53.231Z,23.55
2023-04-19T10:45:53.377Z,23.53
2023-04-19T10:46:53.273Z,23.53
2023-04-19T10:47:53.399Z,23.51
2023-04-19T10:48:53.385Z,23.52
2023-04-19T10:49:53.434Z,23.51
2023-04-19T10:50:53.436Z,23.50
2023-04-19T10:51:53.787Z,23.50
2023-04-19T10:52:53.561Z,23.50
2023-04-19T10:53:53.582Z,23.49
2023-04-19T10:54:53.622Z,23.48
2023-04-19T10:55:53.721Z,23.48
2023-04-19T10:56:53.695Z,23.47
2023-04-19T10:57:53.726Z,23.47
2023-04-19T10:58:53.738Z,23.47
2023-04-19T10:59:53.761Z,23.45
2023-04-19T11:00:53.829Z,23.45
2023-04-19T11:01:54.433Z,23.45
2023-04-19T11:02:54.154Z,23.44
2023-04-19T11:03:54.169Z,23.43
2023-04-19T11:04:53.938Z,23.43
2023-04-19T11:05:53.999Z,23.41
2023-04-19T11:06:54.023Z,23.42
2023-04-19T11:07:54.076Z,23.42
2023-04-19T11:08:54.092Z,23.41
2023-04-19T11:09:54.127Z,23.41
2023-04-19T11:10:54.147Z,23.41
2023-04-19T11:11:54.194Z,23.40
2023-04-19T11:12:54.236Z,23.39
2023-04-19T11:13:54.270Z,23.40
2023-04-19T11:14:54.337Z,23.39
2023-04-19T11:15:54.406Z,23.38
2023-04-19T11:16:54.876Z,23.37
2023-04-19T11:18:08.796Z,23.37
2023-04-19T11:18:55.449Z,23.36
2023-04-19T11:19:54.415Z,23.36
2023-04-19T11:20:54.427Z,23.36
2023-04-19T11:21:54.432Z,23.35
2023-04-19T11:22:54.432Z,23.35
2023-04-19T11:23:54.417Z,23.35
2023-04-19T11:24:54.384Z,23.35
2023-04-19T11:25:54.399Z,23.33
2023-04-19T11:26:55.598Z,23.33
2023-04-19T11:27:54.474Z,23.32
2023-04-19T11:28:54.354Z,23.32
2023-04-19T11:29:54.352Z,23.32
2023-04-19T11:30:54.433Z,23.31
2023-04-19T11:31:54.473Z,23.32
2023-04-19T11:32:54.524Z,23.31
2023-04-19T11:33:54.526Z,23.31
2023-04-19T11:34:54.565Z,23.30
2023-04-19T11:35:54.618Z,23.30
2023-04-19T11:36:54.674Z,23.30
2023-04-19T11:37:54.741Z,23.30
2023-04-19T11:38:54.742Z,23.28
2023-04-19T11:39:54.793Z,23.28
2023-04-19T11:40:54.835Z,23.28
2023-04-19T11:41:54.920Z,23.28
2023-04-19T11:42:54.931Z,23.27
2023-04-19T11:43:54.992Z,23.28
2023-04-19T11:44:54.989Z,23.27
2023-04-19T11:45:55.041Z,23.27
2023-04-19T11:46:55.144Z,23.27
2023-04-19T11:47:55.188Z,23.27
2023-04-19T11:48:55.210Z,23.27
2023-04-19T11:49:55.307Z,23.26
2023-04-19T11:50:55.307Z,23.26
2023-04-19T11:51:55.341Z,23.26
2023-04-19T11:52:55.408Z,23.26
2023-04-19T11:53:55.402Z,23.25
2023-04-19T11:54:55.579Z,23.25
2023-04-19T11:55:55.539Z,23.25
2023-04-19T11:56:55.615Z,23.25
2023-04-19T11:57:55.642Z,23.24
2023-04-19T11:58:55.652Z,23.25
2023-04-19T11:59:55.842Z,23.24
2023-04-19T12:00:55.723Z,23.24
2023-04-19T12:01:55.799Z,23.24
2023-04-19T12:02:56.218Z,23.23
2023-04-19T12:03:56.082Z,23.23
2023-04-19T12:04:56.050Z,23.23
2023-04-19T12:05:56.132Z,23.23
2023-04-19T12:06:56.001Z,23.23
2023-04-19T12:07:56.029Z,23.22
2023-04-19T12:08:56.099Z,23.23
2023-04-19T12:09:56.108Z,23.23
2023-04-19T12:10:56.163Z,23.23
2023-04-19T12:11:56.208Z,23.22
2023-04-19T12:12:56.228Z,23.22
2023-04-19T12:13:56.307Z,23.22
2023-04-19T12:14:56.330Z,23.21
2023-04-19T12:15:56.445Z,23.22
2023-04-19T12:16:56.487Z,23.21
2023-04-19T12:17:57.388Z,23.21
2023-04-19T12:18:56.540Z,23.21
2023-04-19T12:19:56.651Z,23.21
2023-04-19T12:20:57.500Z,23.20
2023-04-19T12:21:56.666Z,23.20
2023-04-19T12:22:56.695Z,23.21
2023-04-19T12:23:56.788Z,23.20
2023-04-19T12:24:56.857Z,23.20
2023-04-19T12:25:56.878Z,23.20
2023-04-19T12:26:56.997Z,23.19
2023-04-19T12:27:56.978Z,23.20
2023-04-19T12:28:57.025Z,23.19
2023-04-19T12:29:57.037Z,23.19
2023-04-19T12:30:57.100Z,23.19
2023-04-19T12:31:57.186Z,23.19
2023-04-19T12:32:57.226Z,23.18
2023-04-19T12:33:57.231Z,23.18
2023-04-19T12:34:57.304Z,23.18
2023-04-19T12:35:57.334Z,23.18
2023-04-19T12:36:57.383Z,23.18
2023-04-19T12:37:57.422Z,23.17
2023-04-19T12:38:57.455Z,23.18
2023-04-19T12:39:57.510Z,23.17
2023-04-19T12:40:57.550Z,23.17
2023-04-19T12:41:57.652Z,23.17
2023-04-19T12:42:57.661Z,23.17
2023-04-19T12:43:57.683Z,23.16
2023-04-19T12:44:57.738Z,23.16
2023-04-19T12:45:57.821Z,23.16
2023-04-19T12:46:58.006Z,23.16
2023-04-19T12:47:57.902Z,23.15
2023-04-19T12:48:57.998Z,23.16
2023-04-19T12:49:57.988Z,23.15
2023-04-19T12:50:58.028Z,23.15
2023-04-19T12:51:58.080Z,23.15
2023-04-19T12:52:58.088Z,23.15
2023-04-19T12:53:58.127Z,23.14
2023-04-19T12:54:58.181Z,23.15
2023-04-19T12:55:58.236Z,23.15
2023-04-19T12:56:58.298Z,23.15
2023-04-19T12:57:58.305Z,23.14
2023-04-19T12:58:58.389Z,23.14
2023-04-19T12:59:58.419Z,23.14
2023-04-19T13:01:05.564Z,23.14
2023-04-19T13:01:58.582Z,23.13